Time;durP1;ratioP1;P1;durP2;ratioP2;P2;SDS_P1;SDS_P2;PMS_P1;PMS_P2;Temp;Humidity;BMP_temperature;BMP_pressure;BME280_temperature;BME280_humidity;BME280_pressure;Samples;Min_cycle;Max_cycle;Signal;HPM_P1;HPM_P2
2023/09/02 00:02:11;;;;;;;7.33;1.30;;;;;;;;;;5026450;28;20600;-72
2023/09/02 00:04:36;;;;;;;5.07;1.60;;;;;;;;;;5023973;28;20325;-71
2023/09/02 00:07:02;;;;;;;2.03;1.30;;;;;;;;;;5013118;28;20268;-71
2023/09/02 00:09:27;;;;;;;7.78;1.38;;;;;;;;;;5014110;28;20032;-72
2023/09/02 00:11:52;;;;;;;2.28;1.10;;;;;;;;;;5013048;28;20041;-72
2023/09/02 00:14:17;;;;;;;12.93;1.50;;;;;;;;;;5014314;28;20029;-71
2023/09/02 00:16:43;;;;;;;7.88;1.77;;;;;;;;;;5032224;28;20026;-72
2023/09/02 00:19:08;;;;;;;8.27;2.03;;;;;;;;;;5026078;28;20022;-72
2023/09/02 00:21:33;;;;;;;8.50;1.90;;;;;;;;;;5023747;28;20034;-71
2023/09/02 00:24:02;;;;;;;5.20;1.60;;;;;;;;;;5032195;28;20024;-71
2023/09/02 00:26:28;;;;;;;4.05;1.65;;;;;;;;;;5031801;28;20028;-71
2023/09/02 00:28:53;;;;;;;4.03;1.30;;;;;;;;;;5032090;28;20017;-72
2023/09/02 00:31:19;;;;;;;8.47;1.87;;;;;;;;;;5025108;28;20358;-72
2023/09/02 00:33:44;;;;;;;7.00;1.90;;;;;;;;;;5026234;28;20025;-71
2023/09/02 00:36:09;;;;;;;13.47;1.63;;;;;;;;;;5030726;28;20018;-71
2023/09/02 00:38:34;;;;;;;5.20;2.17;;;;;;;;;;5016425;28;20026;-70
2023/09/02 00:41:02;;;;;;;3.60;1.60;;;;;;;;;;5016253;28;20068;-71
2023/09/02 00:43:28;;;;;;;3.38;1.38;;;;;;;;;;5016311;28;20041;-71
2023/09/02 00:45:54;;;;;;;21.67;1.63;;;;;;;;;;5024734;28;20467;-71
2023/09/02 00:48:19;;;;;;;16.08;1.90;;;;;;;;;;5035204;28;20040;-71
2023/09/02 00:50:44;;;;;;;5.57;1.30;;;;;;;;;;5035424;28;20431;-72
2023/09/02 00:53:10;;;;;;;13.73;1.90;;;;;;;;;;5035116;28;20063;-71
2023/09/02 00:55:35;;;;;;;2.47;1.20;;;;;;;;;;5035286;28;20014;-71
2023/09/02 00:58:01;;;;;;;6.35;1.25;;;;;;;;;;5034996;28;20611;-69
2023/09/02 01:00:26;;;;;;;4.22;1.13;;;;;;;;;;5035208;28;20124;-71
2023/09/02 01:02:51;;;;;;;6.53;1.03;;;;;;;;;;5021454;28;20018;-71
2023/09/02 01:05:17;;;;;;;1.35;0.90;;;;;;;;;;5025104;28;20255;-71
2023/09/02 01:07:43;;;;;;;5.18;1.20;;;;;;;;;;5035268;28;20021;-63
2023/09/02 01:10:08;;;;;;;2.17;1.20;;;;;;;;;;5035059;28;20029;-63
2023/09/02 01:12:33;;;;;;;2.58;1.13;;;;;;;;;;5034685;28;20033;-64
2023/09/02 01:14:59;;;;;;;3.00;1.10;;;;;;;;;;5035042;28;20416;-63
2023/09/02 01:17:24;;;;;;;2.58;1.17;;;;;;;;;;5027046;28;20476;-63
2023/09/02 01:19:50;;;;;;;7.33;1.50;;;;;;;;;;5034532;28;20033;-63
2023/09/02 01:22:25;;;;;;;5.50;1.15;;;;;;;;;;5034842;28;20037;-63
2023/09/02 01:24:50;;;;;;;6.03;1.05;;;;;;;;;;5034408;28;20021;-64
2023/09/02 01:27:36;;;;;;;5.10;1.00;;;;;;;;;;5034735;28;20426;-63
2023/09/02 01:30:03;;;;;;;11.43;1.33;;;;;;;;;;5034336;28;20025;-63
2023/09/02 01:32:32;;;;;;;15.68;1.35;;;;;;;;;;5029614;28;20072;-63
2023/09/02 01:34:57;;;;;;;5.28;3.05;;;;;;;;;;5031246;28;20025;-64
2023/09/02 01:37:24;;;;;;;1.75;1.02;;;;;;;;;;5026993;28;20536;-64
2023/09/02 01:39:50;;;;;;;5.90;1.75;;;;;;;;;;5020114;28;20101;-63
2023/09/02 01:42:16;;;;;;;10.48;1.30;;;;;;;;;;5015171;28;20116;-64
2023/09/02 01:44:41;;;;;;;2.78;1.00;;;;;;;;;;5026435;28;20461;-64
2023/09/02 01:47:07;;;;;;;3.65;0.90;;;;;;;;;;5018663;28;20037;-63
2023/09/02 01:49:32;;;;;;;11.52;0.90;;;;;;;;;;5033188;28;20013;-64
2023/09/02 01:51:58;;;;;;;2.70;0.80;;;;;;;;;;5034296;28;20056;-63
2023/09/02 01:54:24;;;;;;;7.50;0.70;;;;;;;;;;5032536;28;20389;-64
2023/09/02 01:56:49;;;;;;;9.93;1.20;;;;;;;;;;5034193;28;20059;-63
2023/09/02 01:59:15;;;;;;;7.63;1.15;;;;;;;;;;5034135;28;20025;-63
2023/09/02 02:01:40;;;;;;;4.17;0.97;;;;;;;;;;5025867;28;20152;-64
2023/09/02 02:04:05;;;;;;;1.37;0.93;;;;;;;;;;5025652;28;20304;-64
2023/09/02 02:06:31;;;;;;;3.63;0.85;;;;;;;;;;5034059;28;20414;-63
2023/09/02 02:09:03;;;;;;;1.70;0.93;;;;;;;;;;5027107;28;20085;-63
2023/09/02 02:11:29;;;;;;;6.03;0.77;;;;;;;;;;5014837;28;20108;-63
2023/09/02 02:14:00;;;;;;;5.85;0.90;;;;;;;;;;5014751;28;20219;-64
2023/09/02 02:16:25;;;;;;;4.00;1.10;;;;;;;;;;5014834;28;20030;-71
2023/09/02 02:18:50;;;;;;;3.97;1.00;;;;;;;;;;5024416;28;20033;-71
2023/09/02 02:21:15;;;;;;;4.60;0.80;;;;;;;;;;5014442;28;20037;-71
2023/09/02 02:23:41;;;;;;;1.15;0.90;;;;;;;;;;5029416;28;20017;-71
2023/09/02 02:26:06;;;;;;;1.27;0.70;;;;;;;;;;5033349;28;20021;-71
2023/09/02 02:28:31;;;;;;;1.23;0.77;;;;;;;;;;5029145;28;20033;-70
2023/09/02 02:30:57;;;;;;;5.43;1.00;;;;;;;;;;5014590;28;20619;-71
2023/09/02 02:33:22;;;;;;;3.22;0.90;;;;;;;;;;5014139;28;20337;-71
2023/09/02 02:35:48;;;;;;;1.07;0.77;;;;;;;;;;5027207;28;20025;-71
2023/09/02 02:38:13;;;;;;;5.32;0.80;;;;;;;;;;5033385;28;20013;-71
2023/09/02 02:40:38;;;;;;;1.67;0.73;;;;;;;;;;5033242;28;20022;-71
2023/09/02 02:43:04;;;;;;;1.95;0.93;;;;;;;;;;5032933;28;20343;-71
2023/09/02 02:45:29;;;;;;;0.75;0.40;;;;;;;;;;5033351;28;20079;-71
2023/09/02 02:47:54;;;;;;;6.73;0.80;;;;;;;;;;5032991;28;20041;-71
2023/09/02 02:50:20;;;;;;;1.20;0.90;;;;;;;;;;5031535;28;20021;-71
2023/09/02 02:52:45;;;;;;;1.00;0.60;;;;;;;;;;5033101;28;20022;-71
2023/09/02 02:55:11;;;;;;;0.70;0.70;;;;;;;;;;5032951;28;20385;-71
2023/09/02 02:57:37;;;;;;;0.63;0.60;;;;;;;;;;5032719;28;20021;-71
2023/09/02 03:00:02;;;;;;;7.63;0.80;;;;;;;;;;5033008;28;20126;-71
2023/09/02 03:02:27;;;;;;;4.13;0.88;;;;;;;;;;5032301;28;20286;-71
2023/09/02 03:04:53;;;;;;;0.80;0.70;;;;;;;;;;5014793;28;20416;-71
2023/09/02 03:07:18;;;;;;;6.63;0.80;;;;;;;;;;5013761;28;20255;-71
2023/09/02 03:09:43;;;;;;;2.90;0.90;;;;;;;;;;5013726;28;20481;-71
2023/09/02 03:12:08;;;;;;;1.08;0.80;;;;;;;;;;5013661;28;20029;-71
2023/09/02 03:14:34;;;;;;;2.10;1.00;;;;;;;;;;5013672;28;20030;-71
2023/09/02 03:16:59;;;;;;;0.83;0.80;;;;;;;;;;5013603;28;20263;-71
2023/09/02 03:19:25;;;;;;;0.95;0.70;;;;;;;;;;5016534;28;20036;-71
2023/09/02 03:21:50;;;;;;;1.75;0.80;;;;;;;;;;5018423;28;20180;-71
2023/09/02 03:24:15;;;;;;;1.13;0.73;;;;;;;;;;5013424;28;20026;-71
2023/09/02 03:26:40;;;;;;;2.37;1.17;;;;;;;;;;5017861;28;20025;-63
2023/09/02 03:29:06;;;;;;;0.83;0.73;;;;;;;;;;5032692;28;20036;-64
2023/09/02 03:31:31;;;;;;;1.23;0.63;;;;;;;;;;5032340;28;20026;-63
2023/09/02 03:33:56;;;;;;;7.57;1.10;;;;;;;;;;5032884;28;20500;-63
2023/09/02 03:36:21;;;;;;;38.80;1.40;;;;;;;;;;5024656;28;20022;-64
2023/09/02 03:38:46;;;;;;;1.40;0.90;;;;;;;;;;5013322;28;20025;-63
2023/09/02 03:41:12;;;;;;;0.77;0.77;;;;;;;;;;5013226;28;20018;-63
2023/09/02 03:43:37;;;;;;;1.33;0.60;;;;;;;;;;5013328;28;20350;-63
2023/09/02 03:46:03;;;;;;;1.85;0.80;;;;;;;;;;5013321;28;20040;-63
2023/09/02 03:48:28;;;;;;;8.47;1.00;;;;;;;;;;5011861;28;20084;-63
2023/09/02 03:50:59;;;;;;;1.33;0.73;;;;;;;;;;5029248;28;20274;-64
2023/09/02 03:53:24;;;;;;;10.70;0.93;;;;;;;;;;5013268;28;20739;-63
2023/09/02 03:55:49;;;;;;;1.90;0.83;;;;;;;;;;5021752;28;20082;-63
2023/09/02 03:58:14;;;;;;;1.67;0.93;;;;;;;;;;5032079;28;20044;-63
2023/09/02 04:00:40;;;;;;;0.97;0.70;;;;;;;;;;5032327;28;20030;-63
2023/09/02 04:03:05;;;;;;;7.37;0.83;;;;;;;;;;5032045;28;20511;-64
2023/09/02 04:05:30;;;;;;;3.63;1.00;;;;;;;;;;5013215;28;20022;-65
2023/09/02 04:07:55;;;;;;;14.37;0.90;;;;;;;;;;5028699;28;20363;-64
2023/09/02 04:10:20;;;;;;;1.73;1.00;;;;;;;;;;5016965;28;20466;-63
2023/09/02 04:12:46;;;;;;;3.97;0.70;;;;;;;;;;5016915;28;20025;-63
2023/09/02 04:15:11;;;;;;;6.43;1.00;;;;;;;;;;5017041;28;20056;-63
2023/09/02 04:17:36;;;;;;;6.57;0.90;;;;;;;;;;5016884;28;20017;-63
2023/09/02 04:20:04;;;;;;;9.00;0.93;;;;;;;;;;5032162;28;20068;-64
2023/09/02 04:22:29;;;;;;;3.47;0.80;;;;;;;;;;5035709;28;20477;-63
2023/09/02 04:24:55;;;;;;;7.27;0.93;;;;;;;;;;5022344;28;20025;-63
2023/09/02 04:27:20;;;;;;;0.45;0.43;;;;;;;;;;5016606;28;20287;-63
2023/09/02 04:29:45;;;;;;;2.50;0.87;;;;;;;;;;5027720;28;20025;-63
2023/09/02 04:32:10;;;;;;;4.23;0.70;;;;;;;;;;5035803;28;20267;-63
2023/09/02 04:34:35;;;;;;;1.40;0.90;;;;;;;;;;5035446;28;20041;-64
2023/09/02 04:37:01;;;;;;;8.23;0.97;;;;;;;;;;5035852;28;20029;-64
2023/09/02 04:39:27;;;;;;;3.38;0.90;;;;;;;;;;5028994;28;20018;-63
2023/09/02 04:41:52;;;;;;;3.72;0.65;;;;;;;;;;5016206;28;20109;-63
2023/09/02 04:44:17;;;;;;;1.80;0.70;;;;;;;;;;5016316;28;20077;-63
2023/09/02 04:46:43;;;;;;;2.33;0.68;;;;;;;;;;5016119;28;20109;-64
2023/09/02 04:49:08;;;;;;;5.90;0.63;;;;;;;;;;5026824;28;20017;-63
2023/09/02 04:51:33;;;;;;;0.65;0.50;;;;;;;;;;5035458;28;20025;-64
2023/09/02 04:53:58;;;;;;;1.23;0.80;;;;;;;;;;5033823;28;20426;-64
2023/09/02 04:56:23;;;;;;;1.43;0.70;;;;;;;;;;5016104;28;20018;-64
2023/09/02 04:58:50;;;;;;;1.30;0.90;;;;;;;;;;5016093;28;20024;-64
2023/09/02 05:01:17;;;;;;;8.00;0.70;;;;;;;;;;5015904;28;20486;-64
2023/09/02 05:03:43;;;;;;;6.55;0.70;;;;;;;;;;5019623;28;20017;-65
2023/09/02 05:06:10;;;;;;;3.88;0.95;;;;;;;;;;5029170;28;20072;-64
2023/09/02 05:08:35;;;;;;;1.80;0.63;;;;;;;;;;5035093;28;20029;-64
2023/09/02 05:11:00;;;;;;;7.53;0.90;;;;;;;;;;5034844;28;20022;-64
2023/09/02 05:13:26;;;;;;;5.05;0.70;;;;;;;;;;5035021;28;20259;-64
2023/09/02 05:15:51;;;;;;;10.53;1.10;;;;;;;;;;5034640;28;20408;-64
2023/09/02 05:18:16;;;;;;;0.77;0.65;;;;;;;;;;5034894;28;20028;-64
2023/09/02 05:20:41;;;;;;;1.70;1.00;;;;;;;;;;5028477;28;20363;-64
2023/09/02 05:23:07;;;;;;;4.78;1.10;;;;;;;;;;5015579;28;20259;-64
2023/09/02 05:25:32;;;;;;;7.90;0.90;;;;;;;;;;5015638;28;20017;-64
2023/09/02 05:27:57;;;;;;;7.73;1.20;;;;;;;;;;5015452;28;20026;-64
2023/09/02 05:30:22;;;;;;;1.70;0.90;;;;;;;;;;5015398;28;20260;-64
2023/09/02 05:32:47;;;;;;;3.08;0.93;;;;;;;;;;5015466;28;20026;-64
2023/09/02 05:35:13;;;;;;;3.07;1.07;;;;;;;;;;5022965;28;20104;-64
2023/09/02 05:37:38;;;;;;;4.13;0.80;;;;;;;;;;5015579;28;20022;-64
2023/09/02 05:40:03;;;;;;;8.27;1.17;;;;;;;;;;5015222;28;20267;-64
2023/09/02 05:42:29;;;;;;;7.07;1.20;;;;;;;;;;5015649;28;20416;-64
2023/09/02 05:44:54;;;;;;;1.87;1.23;;;;;;;;;;5034699;28;20037;-64
2023/09/02 05:47:19;;;;;;;6.80;1.42;;;;;;;;;;5034273;28;20361;-64
2023/09/02 05:49:44;;;;;;;16.73;1.38;;;;;;;;;;5032435;28;20025;-64
2023/09/02 05:52:10;;;;;;;6.33;1.73;;;;;;;;;;5024572;28;20382;-64
2023/09/02 05:54:35;;;;;;;4.60;1.60;;;;;;;;;;5015099;28;20033;-64
2023/09/02 05:57:00;;;;;;;2.40;1.40;;;;;;;;;;5025526;28;20259;-64
2023/09/02 05:59:25;;;;;;;2.40;1.23;;;;;;;;;;5034482;28;20021;-63
2023/09/02 06:01:50;;;;;;;3.30;1.20;;;;;;;;;;5034725;28;20274;-64
2023/09/02 06:04:16;;;;;;;6.20;1.23;;;;;;;;;;5034976;28;20261;-64
2023/09/02 06:06:42;;;;;;;2.07;1.40;;;;;;;;;;5032688;28;20068;-64
2023/09/02 06:09:08;;;;;;;3.22;1.20;;;;;;;;;;5014755;28;20466;-64
2023/09/02 06:11:33;;;;;;;2.78;1.20;;;;;;;;;;5014736;28;20433;-71
2023/09/02 06:13:59;;;;;;;4.22;1.17;;;;;;;;;;5013388;28;20026;-64
2023/09/02 06:16:24;;;;;;;2.40;1.23;;;;;;;;;;5014669;28;20026;-64
2023/09/02 06:18:49;;;;;;;2.03;1.10;;;;;;;;;;5026521;28;20022;-64
2023/09/02 06:21:14;;;;;;;0.93;0.73;;;;;;;;;;5014401;28;20026;-64
2023/09/02 06:23:43;;;;;;;2.13;0.80;;;;;;;;;;5014962;28;20092;-64
2023/09/02 06:26:09;;;;;;;1.42;0.82;;;;;;;;;;5014433;28;20057;-64
2023/09/02 06:28:34;;;;;;;6.00;1.00;;;;;;;;;;5014458;28;20045;-64
2023/09/02 06:31:04;;;;;;;1.13;0.83;;;;;;;;;;5013935;28;20028;-64
2023/09/02 06:33:29;;;;;;;1.92;0.80;;;;;;;;;;5015321;28;20259;-64
2023/09/02 06:35:54;;;;;;;0.60;0.60;;;;;;;;;;5014339;28;20030;-64
2023/09/02 06:38:19;;;;;;;6.27;0.87;;;;;;;;;;5004851;28;20033;-66
2023/09/02 06:40:44;;;;;;;1.30;0.70;;;;;;;;;;5013594;28;20029;-64
2023/09/02 06:43:10;;;;;;;1.37;0.80;;;;;;;;;;5013982;28;20482;-64
2023/09/02 06:45:35;;;;;;;0.60;0.60;;;;;;;;;;5014541;28;20022;-66
2023/09/02 06:48:00;;;;;;;4.73;1.10;;;;;;;;;;5033125;28;20068;-64
2023/09/02 06:50:27;;;;;;;1.13;0.70;;;;;;;;;;5033193;28;20787;-64
2023/09/02 06:52:52;;;;;;;3.97;1.20;;;;;;;;;;5031509;28;20021;-64
2023/09/02 06:55:17;;;;;;;2.63;0.97;;;;;;;;;;5033049;28;20048;-64
2023/09/02 06:57:42;;;;;;;8.77;1.27;;;;;;;;;;5033264;28;20025;-73
2023/09/02 07:00:08;;;;;;;5.35;1.10;;;;;;;;;;5032907;28;20079;-73
2023/09/02 07:02:33;;;;;;;2.25;1.10;;;;;;;;;;5020901;28;20028;-73
2023/09/02 07:04:58;;;;;;;9.00;1.07;;;;;;;;;;5014877;28;20429;-73
2023/09/02 07:07:24;;;;;;;2.77;0.80;;;;;;;;;;5013802;28;20278;-73
2023/09/02 07:09:49;;;;;;;5.32;1.23;;;;;;;;;;5013764;28;20428;-73
2023/09/02 07:12:15;;;;;;;0.98;0.88;;;;;;;;;;5013668;28;20021;-71
2023/09/02 07:14:40;;;;;;;4.05;1.02;;;;;;;;;;5012417;28;20022;-73
2023/09/02 07:17:05;;;;;;;6.32;1.27;;;;;;;;;;5021492;28;20034;-72
2023/09/02 07:19:31;;;;;;;1.40;1.07;;;;;;;;;;5013638;28;20386;-73
2023/09/02 07:21:56;;;;;;;1.30;0.97;;;;;;;;;;5013494;28;20025;-73
2023/09/02 07:24:22;;;;;;;2.90;0.95;;;;;;;;;;5013543;28;20025;-74
2023/09/02 07:26:48;;;;;;;4.05;1.08;;;;;;;;;;5013473;28;20111;-73
2023/09/02 07:29:13;;;;;;;4.88;0.90;;;;;;;;;;5013474;28;20359;-73
2023/09/02 07:31:38;;;;;;;3.85;0.98;;;;;;;;;;5013493;28;20030;-73
2023/09/02 07:34:03;;;;;;;2.45;1.10;;;;;;;;;;5032089;28;20390;-73
2023/09/02 07:36:29;;;;;;;2.67;0.90;;;;;;;;;;5032629;28;20026;-73
2023/09/02 07:38:54;;;;;;;1.77;0.90;;;;;;;;;;5032233;28;20029;-72
2023/09/02 07:41:19;;;;;;;4.10;1.30;;;;;;;;;;5032525;28;20084;-72
2023/09/02 07:43:45;;;;;;;2.40;0.70;;;;;;;;;;5036575;28;20021;-72
2023/09/02 07:46:10;;;;;;;1.93;1.00;;;;;;;;;;5028360;28;20259;-71
2023/09/02 07:48:36;;;;;;;1.38;1.00;;;;;;;;;;5028157;28;20025;-72
2023/09/02 07:51:01;;;;;;;2.70;1.27;;;;;;;;;;5036608;28;20387;-73
2023/09/02 07:53:26;;;;;;;2.60;0.93;;;;;;;;;;5019340;28;20260;-73
2023/09/02 07:55:52;;;;;;;3.70;1.10;;;;;;;;;;5027780;28;20251;-72
2023/09/02 07:58:17;;;;;;;4.70;1.10;;;;;;;;;;5036846;28;20088;-72
2023/09/02 08:00:42;;;;;;;3.97;1.10;;;;;;;;;;5036948;28;20030;-73
2023/09/02 08:03:07;;;;;;;2.73;1.30;;;;;;;;;;5036200;28;20263;-72
2023/09/02 08:05:36;;;;;;;2.08;1.00;;;;;;;;;;5017161;28;20036;-72
2023/09/02 08:08:01;;;;;;;3.05;1.17;;;;;;;;;;5016891;28;20026;-73
2023/09/02 08:10:26;;;;;;;3.53;1.17;;;;;;;;;;5016878;28;20045;-72
2023/09/02 08:12:52;;;;;;;2.60;1.00;;;;;;;;;;5016959;28;20153;-72
2023/09/02 08:15:17;;;;;;;3.57;1.00;;;;;;;;;;5018042;28;20042;-72
2023/09/02 08:17:42;;;;;;;1.50;0.90;;;;;;;;;;5017107;28;20026;-72
2023/09/02 08:20:08;;;;;;;2.25;0.98;;;;;;;;;;5028851;28;20025;-72
2023/09/02 08:22:34;;;;;;;2.85;0.98;;;;;;;;;;5035985;28;20049;-73
2023/09/02 08:24:59;;;;;;;1.90;0.90;;;;;;;;;;5035599;28;20455;-73
2023/09/02 08:27:24;;;;;;;3.63;0.90;;;;;;;;;;5035921;28;20018;-73
2023/09/02 08:29:50;;;;;;;2.83;1.08;;;;;;;;;;5035796;28;20250;-71
2023/09/02 08:32:15;;;;;;;4.30;1.05;;;;;;;;;;5024899;28;20030;-72
2023/09/02 08:34:40;;;;;;;4.10;1.10;;;;;;;;;;5022289;28;20025;-72
2023/09/02 08:37:06;;;;;;;3.40;1.05;;;;;;;;;;5035621;28;20037;-71
2023/09/02 08:39:31;;;;;;;3.60;1.10;;;;;;;;;;5024304;28;20418;-72
2023/09/02 08:41:56;;;;;;;1.10;0.97;;;;;;;;;;5016603;28;20022;-72
2023/09/02 08:44:22;;;;;;;2.17;1.00;;;;;;;;;;5017366;28;20030;-72
2023/09/02 08:46:48;;;;;;;3.20;0.95;;;;;;;;;;5035301;28;20037;-72
2023/09/02 08:49:14;;;;;;;3.90;1.25;;;;;;;;;;5035786;28;20366;-72
2023/09/02 08:51:40;;;;;;;5.93;1.20;;;;;;;;;;5016585;28;20033;-72
2023/09/02 08:54:05;;;;;;;2.33;1.23;;;;;;;;;;5015831;28;20030;-72
2023/09/02 08:56:31;;;;;;;3.42;0.90;;;;;;;;;;5016170;28;20021;-73
2023/09/02 08:58:56;;;;;;;4.38;1.38;;;;;;;;;;5016096;28;20022;-73
2023/09/02 09:01:22;;;;;;;6.37;1.83;;;;;;;;;;5015999;28;20032;-73
2023/09/02 09:03:49;;;;;;;2.83;1.10;;;;;;;;;;5023448;28;20025;-73
2023/09/02 09:06:15;;;;;;;4.00;1.10;;;;;;;;;;5024649;28;20026;-72
2023/09/02 09:08:41;;;;;;;2.08;1.27;;;;;;;;;;5015975;28;20097;-73
2023/09/02 09:11:06;;;;;;;3.40;0.90;;;;;;;;;;5015929;28;20550;-72
2023/09/02 09:13:33;;;;;;;5.53;1.40;;;;;;;;;;5015917;28;20083;-72
2023/09/02 09:15:59;;;;;;;7.00;1.05;;;;;;;;;;5030299;28;20036;-72
2023/09/02 09:18:24;;;;;;;3.15;1.10;;;;;;;;;;5034711;28;20029;-63
2023/09/02 09:20:50;;;;;;;3.70;1.20;;;;;;;;;;5030429;28;20139;-64
2023/09/02 09:23:15;;;;;;;2.47;1.20;;;;;;;;;;5015639;28;20489;-63
2023/09/02 09:25:41;;;;;;;2.92;0.90;;;;;;;;;;5014348;28;20025;-63
2023/09/02 09:28:10;;;;;;;1.38;1.00;;;;;;;;;;5015632;28;20035;-63
2023/09/02 09:30:36;;;;;;;3.15;0.88;;;;;;;;;;5015414;28;20110;-63
2023/09/02 09:33:04;;;;;;;2.58;1.10;;;;;;;;;;5015514;28;20466;-63
2023/09/02 09:35:30;;;;;;;3.72;1.15;;;;;;;;;;5015411;28;20108;-63
2023/09/02 09:37:55;;;;;;;2.05;1.02;;;;;;;;;;5033176;28;20498;-64
2023/09/02 09:40:31;;;;;;;2.35;1.38;;;;;;;;;;5034531;28;20021;-64
2023/09/02 09:42:56;;;;;;;1.77;1.00;;;;;;;;;;5032526;28;20017;-63
2023/09/02 09:45:21;;;;;;;1.50;0.97;;;;;;;;;;5021197;28;20488;-63
2023/09/02 09:47:47;;;;;;;6.28;0.98;;;;;;;;;;5014915;28;20339;-63
2023/09/02 09:50:16;;;;;;;2.17;1.20;;;;;;;;;;5034065;28;20025;-64
2023/09/02 09:53:01;;;;;;;1.13;0.73;;;;;;;;;;5032805;28;20255;-63
2023/09/02 09:55:27;;;;;;;2.25;1.05;;;;;;;;;;5034588;28;20381;-63
2023/09/02 09:57:54;;;;;;;1.88;1.00;;;;;;;;;;5021749;28;20441;-63
2023/09/02 10:00:19;;;;;;;2.67;0.90;;;;;;;;;;5014887;28;20100;-63
2023/09/02 10:02:51;;;;;;;2.53;1.00;;;;;;;;;;5014878;28;20097;-63
2023/09/02 10:05:22;;;;;;;1.92;0.90;;;;;;;;;;5032219;28;20270;-63
2023/09/02 10:07:48;;;;;;;;;;;;;;;;;;5034190;28;20104;-63
2023/09/02 10:10:13;;;;;;;2.67;1.10;;;;;;;;;;5015212;28;19956;-63
2023/09/02 10:12:38;;;;;;;2.00;1.00;;;;;;;;;;5014740;28;20022;-64
2023/09/02 10:15:04;;;;;;;2.07;1.07;;;;;;;;;;5023337;28;20024;-64
2023/09/02 10:17:30;;;;;;;3.38;1.48;;;;;;;;;;5033850;28;20014;-64
2023/09/02 10:19:55;;;;;;;3.80;1.50;;;;;;;;;;5033759;28;20022;-64
2023/09/02 10:22:21;;;;;;;1.58;1.20;;;;;;;;;;5031657;28;20061;-64
2023/09/02 10:25:03;;;;;;;2.75;1.17;;;;;;;;;;5014353;28;20018;-64
2023/09/02 10:27:31;;;;;;;2.83;1.30;;;;;;;;;;5014452;28;20053;-63
2023/09/02 10:29:57;;;;;;;3.92;1.55;;;;;;;;;;5014420;28;20030;-64
2023/09/02 10:32:45;;;;;;;2.40;1.10;;;;;;;;;;5014462;28;20029;-64
2023/09/02 10:35:16;;;;;;;2.45;1.15;;;;;;;;;;5033486;28;20029;-63
2023/09/02 10:37:53;;;;;;;2.95;1.20;;;;;;;;;;5031316;28;20021;-64
2023/09/02 10:40:24;;;;;;;1.90;1.10;;;;;;;;;;5014126;28;20037;-63
2023/09/02 10:42:50;;;;;;;2.85;1.30;;;;;;;;;;5014217;28;20124;-63
2023/09/02 10:45:16;;;;;;;2.67;1.20;;;;;;;;;;5027091;28;20053;-64
2023/09/02 10:47:42;;;;;;;2.38;1.20;;;;;;;;;;5026225;28;20502;-63
2023/09/02 10:50:08;;;;;;;2.40;1.27;;;;;;;;;;5014038;28;20113;-63
2023/09/02 10:52:34;;;;;;;5.18;1.25;;;;;;;;;;5013930;28;20084;-63
2023/09/02 10:55:02;;;;;;;4.90;1.47;;;;;;;;;;5030364;28;20025;-63
2023/09/02 10:57:31;;;;;;;5.72;1.33;;;;;;;;;;5032883;28;20105;-65
2023/09/02 11:00:15;;;;;;;6.65;1.50;;;;;;;;;;5033115;28;20032;-63
2023/09/02 11:02:41;;;;;;;1.80;1.17;;;;;;;;;;5031270;28;20029;-63
2023/09/02 11:05:06;;;;;;;6.78;1.90;;;;;;;;;;5033109;28;20677;-63
2023/09/02 11:07:33;;;;;;;2.13;1.40;;;;;;;;;;5026512;28;20025;-63
2023/09/02 11:10:01;;;;;;;8.45;1.70;;;;;;;;;;5023211;28;20109;-63
2023/09/02 11:12:27;;;;;;;3.45;1.73;;;;;;;;;;5032888;28;20516;-63
2023/09/02 11:15:07;;;;;;;5.07;1.45;;;;;;;;;;5031356;28;20496;-64
2023/09/02 11:17:33;;;;;;;2.40;1.33;;;;;;;;;;5007542;28;20021;-63
2023/09/02 11:20:00;;;;;;;4.13;1.50;;;;;;;;;;5013638;28;20025;-63
2023/09/02 11:22:44;;;;;;;5.22;1.30;;;;;;;;;;5013474;28;20108;-63
2023/09/02 11:25:09;;;;;;;3.30;1.58;;;;;;;;;;5021480;28;20539;-64
2023/09/02 11:27:44;;;;;;;2.40;1.30;;;;;;;;;;5032872;28;20014;-63
2023/09/02 11:30:10;;;;;;;4.32;1.60;;;;;;;;;;5031464;28;20612;-64
2023/09/02 11:32:44;;;;;;;5.05;1.40;;;;;;;;;;5032241;28;20048;-63
2023/09/02 11:35:11;;;;;;;3.03;1.50;;;;;;;;;;5032912;28;20029;-63
2023/09/02 11:37:36;;;;;;;11.43;1.60;;;;;;;;;;5032519;28;20021;-63
2023/09/02 11:40:14;;;;;;;3.92;1.30;;;;;;;;;;5029544;28;20025;-63
2023/09/02 11:43:08;;;;;;;2.92;1.27;;;;;;;;;;5013388;28;20026;-63
2023/09/02 11:45:34;;;;;;;4.38;1.50;;;;;;;;;;5018037;28;20116;-63
2023/09/02 11:48:02;;;;;;;3.15;1.63;;;;;;;;;;5022120;28;20085;-65
2023/09/02 11:50:27;;;;;;;3.83;1.98;;;;;;;;;;5006391;28;20026;-63
2023/09/02 11:52:53;;;;;;;3.03;1.50;;;;;;;;;;5013567;28;20088;-63
2023/09/02 11:55:18;;;;;;;3.13;1.70;;;;;;;;;;5013858;28;20543;-64
2023/09/02 11:57:44;;;;;;;5.23;1.33;;;;;;;;;;5032512;28;20013;-63
2023/09/02 12:00:17;;;;;;;3.38;1.70;;;;;;;;;;5032715;28;20064;-63
2023/09/02 12:02:42;;;;;;;2.25;1.40;;;;;;;;;;5022071;28;20422;-63
2023/09/02 12:05:08;;;;;;;12.02;1.70;;;;;;;;;;5013184;28;20072;-63
2023/09/02 12:07:34;;;;;;;4.13;1.75;;;;;;;;;;5013139;28;20080;-63
2023/09/02 12:10:04;;;;;;;4.68;1.75;;;;;;;;;;5013138;28;20075;-63
2023/09/02 12:12:29;;;;;;;2.58;1.48;;;;;;;;;;5028328;28;20029;-63
2023/09/02 12:14:56;;;;;;;6.17;1.63;;;;;;;;;;5013842;28;20036;-63
2023/09/02 12:17:21;;;;;;;4.28;1.98;;;;;;;;;;5013311;28;20026;-63
2023/09/02 12:19:46;;;;;;;2.28;1.10;;;;;;;;;;5013008;28;20083;-64
2023/09/02 12:22:12;;;;;;;4.30;1.80;;;;;;;;;;5012992;28;20034;-63
2023/09/02 12:24:37;;;;;;;4.40;1.70;;;;;;;;;;5013039;28;20025;-63
2023/09/02 12:27:02;;;;;;;4.50;1.95;;;;;;;;;;5021428;28;20604;-63
2023/09/02 12:29:28;;;;;;;3.70;1.95;;;;;;;;;;5034966;28;20017;-63
2023/09/02 12:31:57;;;;;;;4.40;1.83;;;;;;;;;;5035917;28;20045;-72
2023/09/02 12:34:23;;;;;;;2.83;1.90;;;;;;;;;;5033934;28;20378;-72
2023/09/02 12:36:48;;;;;;;5.90;1.98;;;;;;;;;;5034489;28;20028;-72
2023/09/02 12:39:28;;;;;;;4.10;1.60;;;;;;;;;;5035702;28;20092;-72
2023/09/02 12:41:55;;;;;;;16.30;2.80;;;;;;;;;;5033002;28;20379;-72
2023/09/02 12:44:21;;;;;;;5.97;1.88;;;;;;;;;;5030004;28;20437;-66
2023/09/02 12:46:46;;;;;;;22.73;3.25;;;;;;;;;;5027027;28;20066;-64
2023/09/02 12:49:15;;;;;;;16.23;2.30;;;;;;;;;;5019551;28;20064;-64
2023/09/02 12:51:41;;;;;;;5.82;1.90;;;;;;;;;;5035636;28;20029;-64
2023/09/02 12:54:10;;;;;;;6.75;2.22;;;;;;;;;;5035432;28;20041;-64
2023/09/02 12:56:35;;;;;;;14.13;2.13;;;;;;;;;;5035704;28;20461;-64
2023/09/02 12:59:01;;;;;;;6.57;2.78;;;;;;;;;;5035346;28;20022;-64
2023/09/02 13:01:26;;;;;;;5.00;2.30;;;;;;;;;;5031484;28;20385;-64
2023/09/02 13:03:51;;;;;;;6.60;2.00;;;;;;;;;;5016057;28;20018;-64
2023/09/02 13:06:16;;;;;;;4.70;2.17;;;;;;;;;;5016209;28;20033;-64
2023/09/02 13:08:42;;;;;;;6.13;2.00;;;;;;;;;;5020396;28;20727;-64
2023/09/02 13:11:07;;;;;;;5.32;2.10;;;;;;;;;;5035097;28;20258;-64
2023/09/02 13:13:32;;;;;;;3.83;1.90;;;;;;;;;;5035172;28;20025;-64
2023/09/02 13:16:00;;;;;;;5.13;2.10;;;;;;;;;;5028840;28;20389;-64
2023/09/02 13:18:26;;;;;;;3.33;1.80;;;;;;;;;;5033135;28;20267;-64
2023/09/02 13:20:52;;;;;;;4.17;2.27;;;;;;;;;;5034978;28;20384;-64
2023/09/02 13:23:17;;;;;;;8.73;2.47;;;;;;;;;;5034967;28;20025;-64
2023/09/02 13:25:42;;;;;;;5.23;2.23;;;;;;;;;;5034669;28;20095;-64
2023/09/02 13:28:07;;;;;;;3.80;2.10;;;;;;;;;;5034938;28;20508;-64
2023/09/02 13:30:33;;;;;;;5.57;2.10;;;;;;;;;;5034840;28;20025;-64
2023/09/02 13:32:58;;;;;;;7.13;2.20;;;;;;;;;;5024865;28;20596;-64
2023/09/02 13:35:24;;;;;;;5.78;2.30;;;;;;;;;;5020366;28;20025;-64
2023/09/02 13:37:49;;;;;;;6.15;2.38;;;;;;;;;;5035249;28;20541;-64
2023/09/02 13:40:14;;;;;;;4.50;2.38;;;;;;;;;;5034077;28;20489;-64
2023/09/02 13:42:40;;;;;;;6.23;2.37;;;;;;;;;;5035416;28;20055;-64
2023/09/02 13:45:16;;;;;;;7.10;2.55;;;;;;;;;;5035159;28;20377;-64
2023/09/02 13:47:45;;;;;;;4.55;2.20;;;;;;;;;;5024290;28;20042;-64
2023/09/02 13:50:11;;;;;;;4.70;2.20;;;;;;;;;;5034727;28;20489;-64
2023/09/02 13:52:37;;;;;;;4.00;2.05;;;;;;;;;;5034321;28;20060;-64
2023/09/02 13:55:03;;;;;;;8.15;2.38;;;;;;;;;;5034373;28;20061;-64
2023/09/02 13:57:28;;;;;;;5.63;2.40;;;;;;;;;;5032973;28;20025;-64
2023/09/02 13:59:55;;;;;;;5.03;2.57;;;;;;;;;;5033911;28;20025;-64
2023/09/02 14:02:21;;;;;;;4.30;2.05;;;;;;;;;;5030823;28;20275;-64
2023/09/02 14:04:46;;;;;;;5.45;2.35;;;;;;;;;;5029836;28;20397;-64
2023/09/02 14:07:14;;;;;;;5.23;2.20;;;;;;;;;;5033828;28;20017;-64
2023/09/02 14:09:42;;;;;;;5.68;2.00;;;;;;;;;;5034324;28;20022;-64
2023/09/02 14:12:18;;;;;;;6.28;2.17;;;;;;;;;;5033894;28;20022;-64
2023/09/02 14:14:44;;;;;;;6.22;2.58;;;;;;;;;;5034237;28;20478;-64
2023/09/02 14:17:09;;;;;;;6.55;2.20;;;;;;;;;;5018227;28;20032;-64
2023/09/02 14:19:34;;;;;;;4.83;2.30;;;;;;;;;;5024986;28;20029;-64
2023/09/02 14:22:00;;;;;;;5.23;2.53;;;;;;;;;;5033726;28;20270;-64
2023/09/02 14:24:25;;;;;;;5.78;2.50;;;;;;;;;;5033705;28;20259;-64
2023/09/02 14:27:06;;;;;;;5.20;2.38;;;;;;;;;;5034044;28;20492;-64
2023/09/02 14:29:31;;;;;;;4.35;2.10;;;;;;;;;;5033384;28;20018;-64
2023/09/02 14:31:56;;;;;;;4.87;2.57;;;;;;;;;;5033593;28;20155;-64
2023/09/02 14:34:21;;;;;;;4.63;2.10;;;;;;;;;;5027355;28;20394;-64
2023/09/02 14:36:46;;;;;;;4.07;1.90;;;;;;;;;;5030769;28;20517;-64
2023/09/02 14:39:13;;;;;;;6.33;2.30;;;;;;;;;;5033204;28;20029;-64